createdAt,value
2019-02-26T00:01:01.610Z,95.60
2019-02-26T00:03:31.399Z,95.60
2019-02-26T00:06:02.075Z,95.80
2019-02-26T00:08:33.533Z,95.90
2019-02-26T00:11:03.734Z,96.10
2019-02-26T00:13:34.621Z,96.50
2019-02-26T00:16:07.678Z,96.20
2019-02-26T00:18:35.373Z,96.00
2019-02-26T00:21:04.995Z,96.00
2019-02-26T00:23:34.193Z,96.10
2019-02-26T00:26:03.115Z,96.30
2019-02-26T00:28:34.042Z,96.20
2019-02-26T00:31:03.859Z,96.10
2019-02-26T00:33:33.549Z,96.40
2019-02-26T00:36:04.349Z,96.50
2019-02-26T00:38:35.327Z,96.50
2019-02-26T00:41:04.361Z,96.60
2019-02-26T00:43:36.436Z,96.60
2019-02-26T00:46:08.008Z,96.60
2019-02-26T00:48:38.397Z,96.40
2019-02-26T00:51:07.528Z,96.20
2019-02-26T00:53:36.416Z,95.80
2019-02-26T00:56:07.426Z,95.30
2019-02-26T00:58:38.876Z,95.20
2019-02-26T01:01:10.266Z,95.50
2019-02-26T01:03:37.395Z,96.10
2019-02-26T01:06:08.006Z,96.70
2019-02-26T01:08:37.932Z,96.90
2019-02-26T01:11:08.440Z,97.50
2019-02-26T01:13:37.784Z,97.70
2019-02-26T01:16:06.836Z,97.70
2019-02-26T01:18:35.697Z,97.50
2019-02-26T01:21:05.628Z,97.40
2019-02-26T01:23:34.522Z,97.00
2019-02-26T01:26:03.444Z,97.30
2019-02-26T01:28:32.297Z,97.30
2019-02-26T01:31:29.284Z,97.70
2019-02-26T01:33:59.988Z,97.70
2019-02-26T01:36:29.102Z,97.00
2019-02-26T01:38:58.026Z,96.50
2019-02-26T01:41:27.560Z,96.70
2019-02-26T01:43:56.422Z,96.50
2019-02-26T01:46:25.312Z,96.80
2019-02-26T01:48:55.222Z,96.90
2019-02-26T01:51:26.145Z,96.90
2019-02-26T01:53:55.767Z,96.80
2019-02-26T01:56:24.629Z,96.80
2019-02-26T01:58:56.534Z,97.20
2019-02-26T02:01:26.193Z,97.30
2019-02-26T02:03:56.143Z,97.40
2019-02-26T02:06:25.440Z,97.40
2019-02-26T02:08:55.694Z,97.60
2019-02-26T02:11:28.449Z,97.50
2019-02-26T02:13:55.826Z,97.40
2019-02-26T02:16:26.800Z,97.60
2019-02-26T02:18:57.583Z,97.90
2019-02-26T02:21:28.397Z,98.10
2019-02-26T02:24:12.446Z,98.10
2019-02-26T02:26:41.089Z,98.00
2019-02-26T02:29:12.617Z,98.20
2019-02-26T02:31:41.517Z,98.30
2019-02-26T02:34:10.553Z,98.40
2019-02-26T02:36:39.500Z,98.50
2019-02-26T02:39:12.911Z,98.50
2019-02-26T02:41:40.061Z,98.40
2019-02-26T02:44:12.380Z,98.70
2019-02-26T02:46:42.496Z,98.70
2019-02-26T02:49:13.246Z,98.40
2019-02-26T02:51:42.268Z,98.10
2019-02-26T02:54:12.123Z,98.00
2019-02-26T02:56:44.308Z,98.00
2019-02-26T02:59:14.116Z,98.00
2019-02-26T03:01:49.570Z,98.00
2019-02-26T03:04:19.771Z,98.00
2019-02-26T03:06:50.167Z,98.10
2019-02-26T03:09:20.144Z,97.90
2019-02-26T03:11:50.454Z,97.90
2019-02-26T03:14:19.725Z,98.00
2019-02-26T03:16:50.982Z,98.00
2019-02-26T03:19:19.277Z,98.00
2019-02-26T03:21:49.620Z,98.00
2019-02-26T03:24:19.080Z,97.80
2019-02-26T03:26:48.087Z,97.40
2019-02-26T03:29:17.568Z,97.30
2019-02-26T03:31:54.813Z,97.50
2019-02-26T03:34:21.735Z,97.80
2019-02-26T03:36:48.361Z,98.00
2019-02-26T03:39:17.353Z,98.10
2019-02-26T03:41:48.499Z,98.10
2019-02-26T03:44:17.371Z,98.50
2019-02-26T03:46:46.266Z,98.90
2019-02-26T03:49:15.225Z,99.00
2019-02-26T03:51:44.153Z,99.00
2019-02-26T03:54:13.144Z,98.70
2019-02-26T03:56:42.065Z,98.50
2019-02-26T03:59:11.706Z,98.50
2019-02-26T04:01:41.008Z,98.60
2019-02-26T04:04:10.027Z,98.70
2019-02-26T04:06:40.957Z,98.60
2019-02-26T04:09:11.173Z,98.60
2019-02-26T04:11:44.863Z,98.50
2019-02-26T04:14:12.592Z,98.50
2019-02-26T04:16:43.601Z,98.50
2019-02-26T04:19:13.665Z,98.30
2019-02-26T04:22:21.032Z,98.40
2019-02-26T04:24:50.046Z,98.50
2019-02-26T04:27:50.319Z,98.50
2019-02-26T04:31:07.345Z,98.50
2019-02-26T04:34:32.693Z,98.60
2019-02-26T04:37:38.487Z,98.50
2019-02-26T04:40:27.206Z,98.40
2019-02-26T04:43:52.509Z,98.30
2019-02-26T04:47:06.023Z,98.40
2019-02-26T04:49:38.357Z,98.50
2019-02-26T04:52:10.301Z,98.60
2019-02-26T04:54:39.584Z,98.70
2019-02-26T04:57:08.003Z,98.70
2019-02-26T04:59:38.744Z,98.50
2019-02-26T05:02:07.815Z,98.40
2019-02-26T05:04:39.454Z,98.50
2019-02-26T05:07:12.822Z,98.50
2019-02-26T05:09:39.978Z,98.40
2019-02-26T05:12:08.996Z,98.70
2019-02-26T05:14:38.339Z,98.40
2019-02-26T05:17:07.370Z,98.80
2019-02-26T05:19:39.263Z,98.50
2019-02-26T05:22:07.363Z,98.70
2019-02-26T05:24:37.911Z,99.00
2019-02-26T05:27:19.749Z,99.40
2019-02-26T05:29:49.045Z,99.60
2019-02-26T05:32:18.789Z,99.70
2019-02-26T05:34:54.869Z,99.70
2019-02-26T05:37:29.044Z,99.70
2019-02-26T05:39:57.277Z,99.70
2019-02-26T05:42:26.361Z,99.50
2019-02-26T05:44:59.143Z,99.30
2019-02-26T05:47:26.694Z,99.20
2019-02-26T05:49:59.621Z,99.10
2019-02-26T05:52:30.629Z,99.10
2019-02-26T05:55:00.418Z,99.40
2019-02-26T05:57:32.621Z,98.80
2019-02-26T06:00:01.842Z,98.70
2019-02-26T06:02:39.488Z,98.70
2019-02-26T06:05:07.752Z,98.90
2019-02-26T06:07:38.894Z,99.10
2019-02-26T06:10:09.046Z,99.20
2019-02-26T06:12:40.508Z,99.00
2019-02-26T06:15:11.777Z,98.90
2019-02-26T06:17:45.230Z,99.00
2019-02-26T06:20:15.791Z,99.10
2019-02-26T06:22:44.797Z,98.80
2019-02-26T06:25:19.050Z,98.80
2019-02-26T06:27:44.740Z,98.80
2019-02-26T06:30:14.458Z,98.80
2019-02-26T06:32:44.647Z,98.50
2019-02-26T06:35:16.484Z,98.60
2019-02-26T06:37:45.983Z,98.60
2019-02-26T06:40:15.066Z,98.70
2019-02-26T06:42:44.008Z,98.70
2019-02-26T06:45:16.849Z,98.70
2019-02-26T06:47:48.646Z,98.70
2019-02-26T06:50:18.929Z,98.80
2019-02-26T06:52:50.584Z,98.60
2019-02-26T06:55:19.063Z,98.50
2019-02-26T06:57:50.917Z,98.50
2019-02-26T07:00:21.582Z,98.40
2019-02-26T07:02:49.448Z,98.20
2019-02-26T07:05:18.448Z,98.00
2019-02-26T07:07:47.348Z,97.60
2019-02-26T07:10:18.763Z,97.10
2019-02-26T07:12:48.877Z,96.50
2019-02-26T07:15:17.668Z,96.40
2019-02-26T07:17:46.578Z,96.70
2019-02-26T07:20:15.420Z,96.90
2019-02-26T07:22:46.776Z,97.00
2019-02-26T07:25:16.480Z,96.80
2019-02-26T07:27:45.956Z,96.90
2019-02-26T07:30:15.029Z,97.20
2019-02-26T07:32:46.170Z,97.50
2019-02-26T07:35:16.712Z,97.10
2019-02-26T07:37:45.575Z,95.60
2019-02-26T07:40:16.064Z,95.20
2019-02-26T07:42:46.756Z,93.70
2019-02-26T07:45:19.693Z,93.20
2019-02-26T07:47:48.493Z,92.40
2019-02-26T07:50:17.948Z,90.60
2019-02-26T07:52:47.868Z,88.50
2019-02-26T07:55:17.662Z,87.00
2019-02-26T07:57:48.914Z,81.80
2019-02-26T08:00:19.281Z,78.90
2019-02-26T08:02:48.200Z,78.70
2019-02-26T08:05:19.299Z,77.30
2019-02-26T08:07:51.157Z,77.80
2019-02-26T08:10:19.715Z,78.60
2019-02-26T08:12:48.741Z,78.60
2019-02-26T08:15:17.748Z,79.80
2019-02-26T08:17:50.207Z,79.80
2019-02-26T08:20:17.919Z,78.80
2019-02-26T08:22:46.760Z,78.80
2019-02-26T08:25:15.999Z,78.10
2019-02-26T08:27:45.197Z,76.70
2019-02-26T08:30:18.829Z,73.10
2019-02-26T08:32:51.141Z,70.40
2019-02-26T08:35:18.870Z,64.70
2019-02-26T08:37:48.023Z,62.10
2019-02-26T08:40:17.037Z,60.70
2019-02-26T08:42:46.143Z,57.20
2019-02-26T08:45:20.398Z,58.50
2019-02-26T08:47:48.751Z,58.40
2019-02-26T08:50:17.776Z,59.80
2019-02-26T08:52:49.858Z,56.40
2019-02-26T08:55:21.267Z,56.80
2019-02-26T08:57:51.297Z,59.40
2019-02-26T09:00:19.376Z,58.20
2019-02-26T09:02:53.566Z,56.90
2019-02-26T09:05:19.305Z,54.80
2019-02-26T09:07:50.601Z,54.20
2019-02-26T09:10:21.277Z,52.80
2019-02-26T09:12:51.936Z,50.50
2019-02-26T09:15:21.145Z,50.60
2019-02-26T09:17:50.131Z,50.30
2019-02-26T09:20:19.628Z,50.00
2019-02-26T09:22:50.887Z,48.00
2019-02-26T09:25:23.150Z,47.50
2019-02-26T09:27:50.756Z,48.50
2019-02-26T09:30:20.259Z,49.40
2019-02-26T09:32:49.207Z,49.00
2019-02-26T09:35:21.823Z,47.60
2019-02-26T09:37:50.598Z,47.40
2019-02-26T09:40:23.111Z,45.40
2019-02-26T09:42:53.807Z,44.40
2019-02-26T09:45:25.386Z,43.30
2019-02-26T09:47:54.880Z,41.10
2019-02-26T09:50:23.171Z,40.80
2019-02-26T09:52:53.439Z,39.50
2019-02-26T09:55:22.807Z,39.60
2019-02-26T09:57:51.795Z,38.50
2019-02-26T10:00:23.637Z,38.70
2019-02-26T10:02:52.058Z,39.20
2019-02-26T10:05:21.243Z,39.40
2019-02-26T10:07:52.280Z,38.50
2019-02-26T10:10:20.884Z,37.70
2019-02-26T10:12:51.777Z,38.70
2019-02-26T10:15:20.477Z,35.80
2019-02-26T10:17:49.492Z,35.20
2019-02-26T10:20:20.722Z,32.90
2019-02-26T10:22:52.483Z,34.30
2019-02-26T10:25:23.403Z,33.40
2019-02-26T10:27:51.579Z,34.90
2019-02-26T10:30:20.632Z,32.90
2019-02-26T10:32:50.512Z,32.60
2019-02-26T10:35:21.337Z,31.80
2019-02-26T10:37:52.077Z,32.40
2019-02-26T10:40:21.404Z,31.90
2019-02-26T10:42:50.429Z,31.50
2019-02-26T10:45:21.676Z,30.00
2019-02-26T10:47:51.263Z,30.20
2019-02-26T10:50:22.832Z,32.00
2019-02-26T10:52:57.672Z,31.90
2019-02-26T10:55:30.498Z,31.40
2019-02-26T10:57:55.389Z,31.70
2019-02-26T11:00:28.037Z,29.80
2019-02-26T11:02:57.472Z,29.20
2019-02-26T11:05:26.741Z,28.60
2019-02-26T11:07:59.799Z,29.00
2019-02-26T11:10:26.642Z,28.10
2019-02-26T11:12:58.601Z,28.80
2019-02-26T11:15:27.636Z,28.50
2019-02-26T11:17:56.980Z,28.30
2019-02-26T11:20:30.046Z,27.60
2019-02-26T11:22:56.890Z,27.70
2019-02-26T11:25:27.414Z,26.80
2019-02-26T11:27:56.788Z,27.80
2019-02-26T11:30:31.576Z,27.30
2019-02-26T11:33:02.495Z,28.40
2019-02-26T11:35:30.045Z,26.80
2019-02-26T11:37:58.960Z,25.40
2019-02-26T11:40:30.536Z,25.30
2019-02-26T11:43:00.132Z,24.80
2019-02-26T11:45:29.509Z,25.00
2019-02-26T11:48:01.099Z,24.60
2019-02-26T11:50:29.541Z,24.30
2019-02-26T11:52:58.892Z,23.90
2019-02-26T11:55:31.283Z,25.20
2019-02-26T11:57:58.745Z,24.60
2019-02-26T12:00:50.653Z,24.10
2019-02-26T12:03:22.821Z,22.40
2019-02-26T12:05:50.816Z,22.60
2019-02-26T12:08:22.333Z,22.20
2019-02-26T12:10:52.320Z,22.00
2019-02-26T12:13:22.366Z,21.90
2019-02-26T12:15:52.277Z,22.00
2019-02-26T12:18:22.472Z,22.70
2019-02-26T12:20:51.473Z,21.90
2019-02-26T12:23:22.745Z,22.10
2019-02-26T12:25:53.575Z,22.00
2019-02-26T12:28:21.821Z,22.80
2019-02-26T12:30:50.841Z,21.80
2019-02-26T12:33:19.764Z,22.00
2019-02-26T12:35:48.814Z,21.00
2019-02-26T12:38:21.299Z,20.60
2019-02-26T12:40:50.765Z,20.70
2019-02-26T12:43:19.386Z,19.80
2019-02-26T12:45:48.420Z,20.10
2019-02-26T12:48:20.221Z,20.70
2019-02-26T12:50:48.080Z,22.00
2019-02-26T12:53:18.044Z,22.90
2019-02-26T12:55:47.900Z,22.80
2019-02-26T12:58:18.675Z,23.30
2019-02-26T13:00:47.628Z,23.40
2019-02-26T13:03:19.749Z,24.40
2019-02-26T13:05:49.195Z,23.20
2019-02-26T13:08:19.776Z,23.30
2019-02-26T13:10:51.520Z,23.60
2019-02-26T13:13:20.241Z,22.60
2019-02-26T13:15:49.268Z,23.90
2019-02-26T13:18:18.176Z,22.50
2019-02-26T13:20:52.049Z,23.00
2019-02-26T13:23:20.603Z,23.10
2019-02-26T13:25:48.843Z,23.40
2019-02-26T13:28:17.693Z,23.50
2019-02-26T13:30:46.636Z,23.90
2019-02-26T13:33:17.842Z,23.50
2019-02-26T13:35:50.739Z,24.70
2019-02-26T13:38:24.237Z,23.70
2019-02-26T13:40:48.028Z,23.20
2019-02-26T13:43:17.044Z,22.70
2019-02-26T13:45:46.036Z,21.40
2019-02-26T13:48:15.025Z,21.30
2019-02-26T13:50:44.108Z,22.30
2019-02-26T13:53:13.792Z,20.90
2019-02-26T13:55:42.735Z,20.20
2019-02-26T13:58:12.254Z,19.70
2019-02-26T14:00:41.431Z,19.80
2019-02-26T14:03:10.442Z,20.20
2019-02-26T14:05:39.346Z,19.70
2019-02-26T14:08:08.636Z,20.20
2019-02-26T14:10:37.708Z,19.70
2019-02-26T14:13:06.721Z,20.40
2019-02-26T14:15:36.158Z,19.30
2019-02-26T14:18:05.240Z,20.00
2019-02-26T14:20:34.267Z,20.10
2019-02-26T14:23:03.272Z,20.00
2019-02-26T14:25:32.281Z,19.70
2019-02-26T14:28:01.393Z,20.10
2019-02-26T14:30:30.425Z,20.80
2019-02-26T14:32:59.494Z,20.30
2019-02-26T14:35:28.790Z,19.70
2019-02-26T14:37:58.082Z,20.20
2019-02-26T14:40:27.073Z,19.20
2019-02-26T14:42:55.924Z,19.60
2019-02-26T14:45:24.920Z,18.90
2019-02-26T14:47:53.989Z,19.50
2019-02-26T14:50:23.029Z,20.00
2019-02-26T14:52:52.297Z,19.50
2019-02-26T14:55:21.363Z,20.30
2019-02-26T14:57:50.425Z,20.70
2019-02-26T15:00:26.920Z,21.40
2019-02-26T15:02:56.352Z,22.10
2019-02-26T15:05:25.374Z,20.60
2019-02-26T15:07:54.682Z,21.20
2019-02-26T15:10:23.701Z,22.00
2019-02-26T15:12:52.744Z,22.00
2019-02-26T15:15:21.820Z,22.10
2019-02-26T15:17:51.216Z,22.90
2019-02-26T15:20:20.251Z,23.30
2019-02-26T15:22:49.322Z,23.20
2019-02-26T15:25:22.245Z,23.70
2019-02-26T15:27:51.257Z,24.60
2019-02-26T15:30:20.459Z,24.80
2019-02-26T15:32:49.483Z,24.80
2019-02-26T15:35:18.729Z,24.60
2019-02-26T15:37:47.836Z,24.10
2019-02-26T15:40:16.880Z,23.40
2019-02-26T15:42:45.918Z,24.40
2019-02-26T15:45:17.321Z,24.60
2019-02-26T15:47:46.282Z,24.80
2019-02-26T15:50:15.613Z,24.60
2019-02-26T15:52:44.713Z,24.70
2019-02-26T15:55:16.270Z,24.90
2019-02-26T15:57:45.332Z,24.40
2019-02-26T16:00:18.716Z,24.80
2019-02-26T16:02:48.841Z,24.90
2019-02-26T16:05:18.056Z,24.90
2019-02-26T16:07:47.332Z,25.70
2019-02-26T16:10:16.454Z,25.70
2019-02-26T16:12:45.556Z,25.70
2019-02-26T16:15:14.615Z,26.30
2019-02-26T16:17:43.963Z,27.20
2019-02-26T16:20:14.928Z,27.30
2019-02-26T16:22:44.194Z,28.00
2019-02-26T16:25:13.212Z,29.00
2019-02-26T16:27:42.210Z,29.00
2019-02-26T16:30:17.847Z,30.50
2019-02-26T16:32:48.853Z,30.90
2019-02-26T16:35:17.733Z,31.30
2019-02-26T16:37:46.804Z,32.60
2019-02-26T16:40:15.876Z,32.60
2019-02-26T16:42:45.143Z,33.10
2019-02-26T16:45:16.468Z,34.00
2019-02-26T16:47:46.000Z,34.50
2019-02-26T16:50:17.698Z,34.70
2019-02-26T16:52:46.744Z,35.40
2019-02-26T16:55:17.260Z,35.70
2019-02-26T16:57:46.792Z,36.40
2019-02-26T17:00:17.969Z,37.70
2019-02-26T17:02:47.360Z,38.10
2019-02-26T17:05:16.372Z,37.90
2019-02-26T17:07:45.688Z,39.20
2019-02-26T17:10:16.625Z,40.60
2019-02-26T17:12:48.944Z,40.30
2019-02-26T17:15:24.005Z,40.60
2019-02-26T17:17:50.347Z,40.80
2019-02-26T17:20:19.607Z,41.20
2019-02-26T17:22:50.360Z,43.70
2019-02-26T17:25:19.280Z,42.60
2019-02-26T17:27:48.288Z,43.10
2019-02-26T17:30:17.370Z,43.40
2019-02-26T17:32:46.415Z,45.30
2019-02-26T17:35:16.325Z,46.00
2019-02-26T17:37:45.450Z,46.50
2019-02-26T17:40:15.389Z,46.50
2019-02-26T17:42:44.500Z,48.80
2019-02-26T17:45:14.876Z,49.20
2019-02-26T17:47:43.896Z,50.00
2019-02-26T17:50:19.468Z,49.60
2019-02-26T17:52:48.412Z,50.30
2019-02-26T17:55:17.420Z,49.20
2019-02-26T17:57:46.493Z,50.10
2019-02-26T18:00:17.363Z,50.20
2019-02-26T18:02:46.671Z,51.80
2019-02-26T18:05:15.787Z,52.60
2019-02-26T18:07:44.720Z,51.80
2019-02-26T18:10:15.227Z,50.40
2019-02-26T18:12:44.260Z,50.10
2019-02-26T18:15:16.582Z,49.80
2019-02-26T18:17:44.304Z,48.50
2019-02-26T18:20:16.407Z,48.00
2019-02-26T18:22:45.468Z,46.50
2019-02-26T18:25:15.214Z,45.50
2019-02-26T18:27:44.204Z,46.00
2019-02-26T18:30:16.180Z,46.70
2019-02-26T18:32:50.300Z,46.80
2019-02-26T18:35:16.217Z,47.80
2019-02-26T18:37:46.708Z,48.80
2019-02-26T18:40:16.240Z,48.40
2019-02-26T18:42:45.352Z,49.80
2019-02-26T18:45:16.965Z,49.90
2019-02-26T18:47:47.597Z,49.60
2019-02-26T18:50:16.847Z,50.20
2019-02-26T18:52:45.798Z,50.60
2019-02-26T18:55:15.636Z,50.90
2019-02-26T18:57:44.598Z,51.90
2019-02-26T19:00:19.225Z,53.60
2019-02-26T19:02:48.276Z,53.20
2019-02-26T19:05:20.655Z,53.60
2019-02-26T19:07:48.245Z,53.80
2019-02-26T19:10:20.667Z,53.60
2019-02-26T19:12:48.460Z,54.10
2019-02-26T19:15:18.421Z,55.50
2019-02-26T19:17:49.202Z,55.70
2019-02-26T19:20:19.990Z,56.60
2019-02-26T19:22:49.041Z,58.00
2019-02-26T19:25:18.125Z,58.00
2019-02-26T19:27:47.100Z,58.50
2019-02-26T19:30:17.390Z,58.20
2019-02-26T19:32:47.761Z,58.50
2019-02-26T19:35:17.073Z,56.80
2019-02-26T19:37:46.504Z,57.30
2019-02-26T19:40:17.510Z,57.00
2019-02-26T19:42:46.460Z,57.20
2019-02-26T19:45:15.714Z,57.30
2019-02-26T19:47:44.732Z,58.50
2019-02-26T19:50:14.780Z,59.20
2019-02-26T19:52:44.029Z,59.60
2019-02-26T19:55:16.412Z,60.20
2019-02-26T19:57:45.440Z,61.70
2019-02-26T20:00:14.633Z,62.40
2019-02-26T20:02:43.640Z,61.90
2019-02-26T20:05:13.276Z,59.70
2019-02-26T20:07:42.288Z,58.20
2019-02-26T20:10:12.867Z,58.10
2019-02-26T20:12:43.629Z,58.20
2019-02-26T20:15:13.624Z,58.40
2019-02-26T20:17:42.668Z,58.90
2019-02-26T20:20:12.689Z,59.50
2019-02-26T20:22:41.627Z,60.70
2019-02-26T20:25:13.011Z,62.80
2019-02-26T20:27:42.273Z,61.10
2019-02-26T20:30:15.062Z,61.30
2019-02-26T20:32:43.935Z,61.40
2019-02-26T20:35:13.081Z,60.80
2019-02-26T20:37:42.173Z,60.70
2019-02-26T20:40:16.904Z,60.00
2019-02-26T20:42:45.887Z,59.60
2019-02-26T20:45:18.181Z,60.00
2019-02-26T20:47:47.053Z,58.70
2019-02-26T20:50:20.135Z,58.90
2019-02-26T20:52:47.392Z,58.70
2019-02-26T20:55:19.241Z,58.30
2019-02-26T20:57:48.552Z,58.30
2019-02-26T21:00:18.501Z,59.20
2019-02-26T21:02:47.654Z,59.20
2019-02-26T21:05:16.672Z,58.20
2019-02-26T21:07:45.679Z,58.40
2019-02-26T21:10:15.916Z,57.50
2019-02-26T21:12:45.032Z,58.30
2019-02-26T21:15:15.740Z,58.50
2019-02-26T21:17:44.833Z,58.40
2019-02-26T21:20:14.009Z,58.80
2019-02-26T21:22:43.047Z,58.90
2019-02-26T21:25:12.158Z,58.80
2019-02-26T21:27:41.667Z,58.70
2019-02-26T21:30:13.777Z,59.10
2019-02-26T21:32:42.808Z,59.50
2019-02-26T21:35:12.092Z,60.00
2019-02-26T21:37:41.054Z,61.30
2019-02-26T21:40:11.031Z,61.30
2019-02-26T21:42:40.065Z,61.20
2019-02-26T21:45:10.412Z,60.80
2019-02-26T21:47:39.731Z,61.60
2019-02-26T21:50:09.743Z,60.90
2019-02-26T21:52:41.816Z,62.00
2019-02-26T21:55:09.660Z,61.10
2019-02-26T21:57:38.701Z,61.20
2019-02-26T22:00:11.605Z,60.80
2019-02-26T22:02:40.598Z,60.70
2019-02-26T22:05:09.689Z,61.20
2019-02-26T22:07:38.701Z,62.00
2019-02-26T22:10:09.055Z,62.30
2019-02-26T22:12:37.987Z,64.00
2019-02-26T22:15:10.162Z,64.20
2019-02-26T22:17:37.981Z,63.90
2019-02-26T22:20:09.273Z,62.70
2019-02-26T22:22:38.439Z,63.30
2019-02-26T22:25:09.946Z,63.20
2019-02-26T22:27:38.325Z,62.80
2019-02-26T22:30:10.257Z,62.00
2019-02-26T22:32:39.525Z,61.40
2019-02-26T22:35:08.979Z,63.00
2019-02-26T22:37:38.929Z,62.20
2019-02-26T22:40:09.693Z,62.50
2019-02-26T22:42:41.334Z,63.00
2019-02-26T22:45:10.128Z,62.90
2019-02-26T22:47:40.563Z,62.90
2019-02-26T22:50:11.252Z,62.00
2019-02-26T22:52:40.167Z,63.50
2019-02-26T22:55:10.412Z,65.00
2019-02-26T22:57:39.344Z,65.60
2019-02-26T23:00:24.884Z,65.40
2019-02-26T23:02:53.888Z,66.00
2019-02-26T23:05:25.407Z,66.60
2019-02-26T23:07:53.884Z,68.40
2019-02-26T23:10:24.700Z,67.50
2019-02-26T23:12:53.670Z,69.20
2019-02-26T23:15:29.368Z,69.00
2019-02-26T23:17:58.964Z,70.60
2019-02-26T23:20:31.041Z,70.30
2019-02-26T23:23:01.310Z,70.10
2019-02-26T23:25:36.055Z,70.50
2019-02-26T23:28:08.885Z,69.80
2019-02-26T23:30:38.512Z,71.40
2019-02-26T23:33:08.110Z,70.90
2019-02-26T23:35:37.221Z,71.20
2019-02-26T23:38:08.530Z,70.90
2019-02-26T23:40:37.066Z,71.50
2019-02-26T23:43:11.721Z,72.20
2019-02-26T23:45:37.254Z,72.90
2019-02-26T23:48:08.077Z,73.00
2019-02-26T23:50:37.146Z,73.10
2019-02-26T23:53:07.404Z,73.70
2019-02-26T23:55:36.410Z,73.60
2019-02-26T23:58:05.413Z,72.20
